createdAt,value
2019-06-01T00:02:20.903Z,10.40
2019-06-01T00:05:09.827Z,10.40
2019-06-01T00:07:58.182Z,10.30
2019-06-01T00:10:49.587Z,10.30
2019-06-01T00:13:37.911Z,10.30
2019-06-01T00:16:25.887Z,10.30
2019-06-01T00:19:14.187Z,10.30
2019-06-01T00:22:02.082Z,10.30
2019-06-01T00:24:50.159Z,10.20
2019-06-01T00:27:38.327Z,10.20
2019-06-01T00:30:27.330Z,10.20
2019-06-01T00:33:15.618Z,10.10
2019-06-01T00:36:03.662Z,10.10
2019-06-01T00:38:52.084Z,10.00
2019-06-01T00:41:43.869Z,10.10
2019-06-01T00:44:31.911Z,10.10
2019-06-01T00:47:20.119Z,10.20
2019-06-01T00:50:08.300Z,10.20
2019-06-01T00:52:56.528Z,10.10
2019-06-01T00:55:46.005Z,10.00
2019-06-01T00:58:34.312Z,10.00
2019-06-01T01:01:27.856Z,10.00
2019-06-01T01:04:16.352Z,9.90
2019-06-01T01:07:04.278Z,9.90
2019-06-01T01:09:52.923Z,9.90
2019-06-01T01:12:59.028Z,9.70
2019-06-01T01:15:47.260Z,9.60
2019-06-01T01:18:37.827Z,9.60
2019-06-01T01:21:25.985Z,9.50
2019-06-01T01:24:14.236Z,9.50
2019-06-01T01:27:02.366Z,9.50
2019-06-01T01:29:50.947Z,9.40
2019-06-01T01:32:41.785Z,9.30
2019-06-01T01:35:31.828Z,9.30
2019-06-01T01:38:21.949Z,9.20
2019-06-01T01:41:10.299Z,9.20
2019-06-01T01:43:58.695Z,9.10
2019-06-01T01:46:48.675Z,9.10
2019-06-01T01:49:37.041Z,9.10
2019-06-01T01:52:25.067Z,9.00
2019-06-01T01:55:13.198Z,9.00
2019-06-01T01:58:01.767Z,8.90
2019-06-01T02:00:54.145Z,8.90
2019-06-01T02:03:41.662Z,9.00
2019-06-01T02:06:29.864Z,9.00
2019-06-01T02:09:17.795Z,9.00
2019-06-01T02:12:08.951Z,8.90
2019-06-01T02:15:02.354Z,8.90
2019-06-01T02:17:51.947Z,8.80
2019-06-01T02:20:40.110Z,8.70
2019-06-01T02:23:28.027Z,8.70
2019-06-01T02:26:15.712Z,8.80
2019-06-01T02:29:04.439Z,8.70
2019-06-01T02:31:52.631Z,8.60
2019-06-01T02:34:40.623Z,8.60
2019-06-01T02:37:28.818Z,8.50
2019-06-01T02:40:18.572Z,8.50
2019-06-01T02:43:07.294Z,8.50
2019-06-01T02:45:56.294Z,8.50
2019-06-01T02:48:44.264Z,8.50
2019-06-01T02:51:32.186Z,8.40
2019-06-01T02:54:20.123Z,8.30
2019-06-01T02:57:11.256Z,8.30
2019-06-01T03:00:00.330Z,8.30
2019-06-01T03:02:51.597Z,8.30
2019-06-01T03:05:39.331Z,8.20
2019-06-01T03:08:30.377Z,8.20
2019-06-01T03:11:20.905Z,8.20
2019-06-01T03:14:10.716Z,8.20
2019-06-01T03:17:01.720Z,8.20
2019-06-01T03:19:52.441Z,8.10
2019-06-01T03:22:43.545Z,8.10
2019-06-01T03:25:33.051Z,8.20
2019-06-01T03:28:23.738Z,8.20
2019-06-01T03:31:13.344Z,8.10
2019-06-01T03:34:03.572Z,8.10
2019-06-01T03:36:51.370Z,8.10
2019-06-01T03:39:39.502Z,8.00
2019-06-01T03:42:27.619Z,8.00
2019-06-01T03:45:15.611Z,7.90
2019-06-01T03:48:04.563Z,8.00
2019-06-01T03:50:52.711Z,8.10
2019-06-01T03:53:40.691Z,8.10
2019-06-01T03:56:28.864Z,8.10
2019-06-01T03:59:16.868Z,8.10
2019-06-01T04:02:05.099Z,8.10
2019-06-01T04:04:53.283Z,8.10
2019-06-01T04:07:40.853Z,8.20
2019-06-01T04:10:28.937Z,8.20
2019-06-01T04:13:16.897Z,8.20
2019-06-01T04:16:05.866Z,8.20
2019-06-01T04:18:55.868Z,8.20
2019-06-01T04:21:44.083Z,8.30
2019-06-01T04:24:31.934Z,8.40
2019-06-01T04:27:19.539Z,8.50
2019-06-01T04:30:09.376Z,8.60
2019-06-01T04:32:59.946Z,8.60
2019-06-01T04:35:47.906Z,8.60
2019-06-01T04:38:38.906Z,8.70
2019-06-01T04:41:27.002Z,8.70
2019-06-01T04:44:18.162Z,8.80
2019-06-01T04:47:06.671Z,9.00
2019-06-01T04:49:54.839Z,9.10
2019-06-01T04:52:43.049Z,9.20
2019-06-01T04:55:31.186Z,9.30
2019-06-01T04:58:22.124Z,9.50
2019-06-01T05:01:10.950Z,9.60
2019-06-01T05:03:59.404Z,9.80
2019-06-01T05:06:47.758Z,10.00
2019-06-01T05:09:36.156Z,10.20
2019-06-01T05:12:24.487Z,10.30
2019-06-01T05:15:14.052Z,10.50
2019-06-01T05:18:02.573Z,10.70
2019-06-01T05:20:51.101Z,10.90
2019-06-01T05:23:39.452Z,11.10
2019-06-01T05:26:27.754Z,11.20
2019-06-01T05:29:17.817Z,11.40
2019-06-01T05:32:06.843Z,11.50
2019-06-01T05:34:55.224Z,11.70
2019-06-01T05:37:45.021Z,11.80
2019-06-01T05:40:34.146Z,11.90
2019-06-01T05:43:22.302Z,12.00
2019-06-01T05:46:11.847Z,12.20
2019-06-01T05:48:59.939Z,12.30
2019-06-01T05:51:47.999Z,12.30
2019-06-01T05:54:37.840Z,12.40
2019-06-01T05:57:26.821Z,12.60
2019-06-01T06:00:17.216Z,12.70
2019-06-01T06:03:06.923Z,12.80
2019-06-01T06:05:55.220Z,12.90
2019-06-01T06:08:43.747Z,13.00
2019-06-01T06:11:33.359Z,13.20
2019-06-01T06:14:22.604Z,13.30
2019-06-01T06:17:13.718Z,13.40
2019-06-01T06:20:00.447Z,13.50
2019-06-01T06:22:48.795Z,13.60
2019-06-01T06:25:39.714Z,13.80
2019-06-01T06:28:26.823Z,13.80
2019-06-01T06:31:15.292Z,14.00
2019-06-01T06:34:06.275Z,14.20
2019-06-01T06:36:54.828Z,14.30
2019-06-01T06:39:42.533Z,14.40
2019-06-01T06:42:32.022Z,14.50
2019-06-01T06:45:20.760Z,14.70
2019-06-01T06:48:08.930Z,14.70
2019-06-01T06:50:57.019Z,14.90
2019-06-01T06:53:45.383Z,15.00
2019-06-01T06:56:33.697Z,15.20
2019-06-01T06:59:22.842Z,15.40
2019-06-01T07:02:11.318Z,15.50
2019-06-01T07:05:00.600Z,15.70
2019-06-01T07:07:48.741Z,15.90
2019-06-01T07:10:36.640Z,16.00
2019-06-01T07:13:27.663Z,16.10
2019-06-01T07:16:17.104Z,16.20
2019-06-01T07:19:05.202Z,16.30
2019-06-01T07:21:53.161Z,16.30
2019-06-01T07:24:41.089Z,16.50
2019-06-01T07:27:29.102Z,16.70
2019-06-01T07:30:17.221Z,16.80
2019-06-01T07:33:05.214Z,16.90
2019-06-01T07:35:59.022Z,17.10
2019-06-01T07:38:47.192Z,17.30
2019-06-01T07:41:35.497Z,17.40
2019-06-01T07:44:25.025Z,17.40
2019-06-01T07:47:13.343Z,17.50
2019-06-01T07:50:01.672Z,17.60
2019-06-01T07:52:49.839Z,17.70
2019-06-01T07:55:38.118Z,17.90
2019-06-01T07:58:28.785Z,18.00
2019-06-01T08:01:17.311Z,18.20
2019-06-01T08:04:05.317Z,18.30
2019-06-01T08:06:53.498Z,18.50
2019-06-01T08:09:41.566Z,18.60
2019-06-01T08:12:29.801Z,18.80
2019-06-01T08:15:17.876Z,19.00
2019-06-01T08:18:05.929Z,19.10
2019-06-01T08:20:53.512Z,19.20
2019-06-01T08:23:41.729Z,19.30
2019-06-01T08:26:30.625Z,19.40
2019-06-01T08:29:18.909Z,19.50
2019-06-01T08:32:06.954Z,19.70
2019-06-01T08:35:07.833Z,19.90
2019-06-01T08:37:45.602Z,20.00
2019-06-01T08:40:33.775Z,20.10
2019-06-01T08:43:21.456Z,20.20
2019-06-01T08:46:09.065Z,20.30
2019-06-01T08:48:57.688Z,20.50
2019-06-01T08:51:45.382Z,20.60
2019-06-01T08:54:34.332Z,20.70
2019-06-01T08:57:22.375Z,20.90
2019-06-01T09:00:10.980Z,21.00
2019-06-01T09:02:59.190Z,21.20
2019-06-01T09:05:47.243Z,21.30
2019-06-01T09:08:37.072Z,21.40
2019-06-01T09:11:25.477Z,21.40
2019-06-01T09:14:16.203Z,21.50
2019-06-01T09:17:07.635Z,21.60
2019-06-01T09:19:56.013Z,21.60
2019-06-01T09:22:49.321Z,21.70
2019-06-01T09:25:46.126Z,21.90
2019-06-01T09:28:37.475Z,21.80
2019-06-01T09:31:26.323Z,21.90
2019-06-01T09:34:15.015Z,21.90
2019-06-01T09:37:03.159Z,21.90
2019-06-01T09:39:51.068Z,22.00
2019-06-01T09:42:41.195Z,22.20
2019-06-01T09:45:29.922Z,22.20
2019-06-01T09:48:20.049Z,22.10
2019-06-01T09:51:08.372Z,22.20
2019-06-01T09:53:59.407Z,22.40
2019-06-01T09:56:49.998Z,22.50
2019-06-01T09:59:38.619Z,22.60
2019-06-01T10:02:30.171Z,22.60
2019-06-01T10:05:20.105Z,22.60
2019-06-01T10:20:30.680Z,22.90
2019-06-01T10:23:18.484Z,23.20
2019-06-01T10:26:06.228Z,22.90
2019-06-01T10:28:54.452Z,22.80
2019-06-01T10:31:43.194Z,22.60
2019-06-01T10:34:31.550Z,22.80
2019-06-01T10:48:06.968Z,23.40
2019-06-01T10:50:54.722Z,23.30
2019-06-01T10:53:43.742Z,23.30
2019-06-01T10:56:32.348Z,23.00
2019-06-01T10:59:20.217Z,23.40
2019-06-01T11:02:08.365Z,23.50
2019-06-01T11:04:55.656Z,23.40
2019-06-01T11:07:43.264Z,23.30
2019-06-01T11:10:31.080Z,23.20
2019-06-01T11:13:18.682Z,23.60
2019-06-01T11:16:06.174Z,23.50
2019-06-01T11:18:54.157Z,23.30
2019-06-01T11:21:44.566Z,23.60
2019-06-01T11:24:33.266Z,23.90
2019-06-01T11:27:21.062Z,23.70
2019-06-01T11:30:09.596Z,23.70
2019-06-01T11:32:57.378Z,23.70
2019-06-01T11:35:45.491Z,23.50
2019-06-01T11:38:34.657Z,23.60
2019-06-01T11:41:25.590Z,23.70
2019-06-01T11:44:13.105Z,23.90
2019-06-01T11:47:01.175Z,23.80
2019-06-01T11:49:48.741Z,23.70
2019-06-01T11:52:37.096Z,23.70
2019-06-01T11:55:24.723Z,23.50
2019-06-01T11:58:12.386Z,23.80
2019-06-01T12:01:00.391Z,24.10
2019-06-01T12:03:48.086Z,23.90
2019-06-01T12:06:36.034Z,24.10
2019-06-01T12:09:23.574Z,24.20
2019-06-01T12:12:12.479Z,24.10
2019-06-01T12:14:59.876Z,24.10
2019-06-01T12:17:47.842Z,24.00
2019-06-01T12:20:36.585Z,24.20
2019-06-01T12:23:24.172Z,24.50
2019-06-01T12:26:12.298Z,24.40
2019-06-01T12:28:59.932Z,24.50
2019-06-01T12:31:48.250Z,24.70
2019-06-01T12:34:38.073Z,24.80
2019-06-01T12:37:45.538Z,24.60
2019-06-01T12:40:16.438Z,24.80
2019-06-01T12:43:04.090Z,24.60
2019-06-01T12:46:05.496Z,24.60
2019-06-01T12:48:41.850Z,24.60
2019-06-01T12:51:30.657Z,24.80
2019-06-01T12:54:18.036Z,24.60
2019-06-01T12:57:05.773Z,24.80
2019-06-01T12:59:53.721Z,24.50
2019-06-01T13:02:46.380Z,24.60
2019-06-01T13:05:30.954Z,24.70
2019-06-01T13:08:18.559Z,24.60
2019-06-01T13:11:06.261Z,24.70
2019-06-01T13:13:53.823Z,24.80
2019-06-01T13:16:43.984Z,24.80
2019-06-01T13:19:31.103Z,24.60
2019-06-01T13:22:19.077Z,24.70
2019-06-01T13:25:08.256Z,24.70
2019-06-01T13:27:55.853Z,24.80
2019-06-01T13:30:45.506Z,24.90
2019-06-01T13:33:32.242Z,24.80
2019-06-01T13:36:19.938Z,24.50
2019-06-01T13:39:08.434Z,24.70
2019-06-01T13:41:55.946Z,24.90
2019-06-01T13:44:45.192Z,24.80
2019-06-01T13:47:33.410Z,24.80
2019-06-01T13:50:21.338Z,24.80
2019-06-01T13:53:09.215Z,24.80
2019-06-01T13:55:57.030Z,24.80
2019-06-01T13:58:46.261Z,24.70
2019-06-01T14:01:34.152Z,24.70
2019-06-01T14:04:24.426Z,24.80
2019-06-01T14:07:13.215Z,25.10
2019-06-01T14:10:00.643Z,24.90
2019-06-01T14:12:49.387Z,24.90
2019-06-01T14:15:38.026Z,24.80
2019-06-01T14:18:26.114Z,24.90
2019-06-01T14:21:14.224Z,25.00
2019-06-01T14:24:02.905Z,25.10
2019-06-01T14:26:52.162Z,25.40
2019-06-01T14:29:40.270Z,25.70
2019-06-01T14:32:27.726Z,26.00
2019-06-01T14:35:15.396Z,26.10
2019-06-01T14:38:03.170Z,25.70
2019-06-01T14:40:53.199Z,25.30
2019-06-01T14:43:42.445Z,25.20
2019-06-01T14:46:31.077Z,25.40
2019-06-01T14:49:18.881Z,25.80
2019-06-01T14:52:06.617Z,25.90
2019-06-01T14:54:55.836Z,26.10
2019-06-01T14:57:43.811Z,25.60
2019-06-01T15:00:31.471Z,25.70
2019-06-01T15:03:19.326Z,25.90
2019-06-01T15:06:07.326Z,26.00
2019-06-01T15:09:10.757Z,26.30
2019-06-01T15:11:44.495Z,26.60
2019-06-01T15:14:32.110Z,26.30
2019-06-01T15:17:19.901Z,26.10
2019-06-01T15:20:08.455Z,26.10
2019-06-01T15:22:56.469Z,26.20
2019-06-01T15:25:44.010Z,26.00
2019-06-01T15:28:31.633Z,25.80
2019-06-01T15:31:18.866Z,25.70
2019-06-01T15:34:06.409Z,25.70
2019-06-01T15:36:55.513Z,25.80
2019-06-01T15:39:43.389Z,26.30
2019-06-01T15:42:30.947Z,26.60
2019-06-01T15:45:19.432Z,26.60
2019-06-01T15:48:07.294Z,26.60
2019-06-01T15:51:00.498Z,26.80
2019-06-01T15:53:44.932Z,27.10
2019-06-01T15:56:32.654Z,27.10
2019-06-01T15:59:20.393Z,26.80
2019-06-01T16:02:08.507Z,26.70
2019-06-01T16:04:57.013Z,26.90
2019-06-01T16:07:45.338Z,27.20
2019-06-01T16:10:32.917Z,27.00
2019-06-01T16:13:20.606Z,27.30
2019-06-01T16:16:08.278Z,27.80
2019-06-01T16:18:59.844Z,28.10
2019-06-01T16:21:44.846Z,28.30
2019-06-01T16:24:33.070Z,28.80
2019-06-01T16:27:21.057Z,28.50
2019-06-01T16:30:09.601Z,28.10
2019-06-01T16:32:58.490Z,28.30
2019-06-01T16:35:46.921Z,27.70
2019-06-01T16:38:34.771Z,28.40
2019-06-01T16:41:22.541Z,28.20
2019-06-01T16:44:10.080Z,28.40
2019-06-01T16:46:57.815Z,28.60
2019-06-01T16:49:45.980Z,28.80
2019-06-01T16:52:35.830Z,28.80
2019-06-01T16:55:23.805Z,27.80
2019-06-01T16:58:11.358Z,27.90
2019-06-01T17:00:58.881Z,28.10
2019-06-01T17:03:46.481Z,27.60
2019-06-01T17:06:34.572Z,27.40
2019-06-01T17:09:22.551Z,27.60
2019-06-01T17:12:10.636Z,28.10
2019-06-01T17:14:58.861Z,27.70
2019-06-01T17:17:46.829Z,27.50
2019-06-01T17:20:43.006Z,27.20
2019-06-01T17:23:33.153Z,27.30
2019-06-01T17:26:20.035Z,27.50
2019-06-01T17:29:08.303Z,27.10
2019-06-01T17:32:12.614Z,26.80
2019-06-01T17:34:45.761Z,26.40
2019-06-01T17:37:33.426Z,26.00
2019-06-01T17:40:36.058Z,26.10
2019-06-01T17:43:10.838Z,25.40
2019-06-01T17:45:58.556Z,25.00
2019-06-01T17:48:46.670Z,24.60
2019-06-01T17:51:34.938Z,24.40
2019-06-01T17:54:23.082Z,24.30
2019-06-01T17:57:12.987Z,24.30
2019-06-01T18:00:01.759Z,24.20
2019-06-01T18:02:49.810Z,24.20
2019-06-01T18:05:38.023Z,24.20
2019-06-01T18:08:25.963Z,24.20
2019-06-01T18:11:13.966Z,24.20
2019-06-01T18:14:02.153Z,24.10
2019-06-01T18:16:50.106Z,24.00
2019-06-01T18:19:37.764Z,23.80
2019-06-01T18:22:25.606Z,23.70
2019-06-01T18:25:22.438Z,23.50
2019-06-01T18:28:16.249Z,23.40
2019-06-01T18:30:59.587Z,23.20
2019-06-01T18:33:47.530Z,23.10
2019-06-01T18:36:35.379Z,22.90
2019-06-01T18:39:23.601Z,22.80
2019-06-01T18:42:12.418Z,22.70
2019-06-01T18:45:00.332Z,22.50
2019-06-01T18:47:48.372Z,22.40
2019-06-01T18:50:36.453Z,22.20
2019-06-01T18:53:24.443Z,22.10
2019-06-01T18:56:12.333Z,21.90
2019-06-01T18:59:00.206Z,21.80
2019-06-01T19:01:47.975Z,21.60
2019-06-01T19:04:36.907Z,21.50
2019-06-01T19:07:25.587Z,21.40
2019-06-01T19:10:15.835Z,21.30
2019-06-01T19:13:05.617Z,21.20
2019-06-01T19:15:54.780Z,21.00
2019-06-01T19:18:43.818Z,20.90
2019-06-01T19:21:32.607Z,20.80
2019-06-01T19:24:21.061Z,20.70
2019-06-01T19:27:10.671Z,20.40
2019-06-01T19:29:59.553Z,20.20
2019-06-01T19:32:48.407Z,20.00
2019-06-01T19:35:37.177Z,19.80
2019-06-01T19:38:27.074Z,19.60
2019-06-01T19:41:15.832Z,19.40
2019-06-01T19:44:17.930Z,19.10
2019-06-01T19:47:07.756Z,18.90
2019-06-01T19:49:56.531Z,18.80
2019-06-01T19:52:45.157Z,18.70
2019-06-01T19:55:33.912Z,18.60
2019-06-01T19:58:22.698Z,18.30
2019-06-01T20:01:12.250Z,18.20
2019-06-01T20:04:01.266Z,18.10
2019-06-01T20:06:50.025Z,17.90
2019-06-01T20:09:38.788Z,17.80
2019-06-01T20:12:28.257Z,17.70
2019-06-01T20:15:17.587Z,17.60
2019-06-01T20:18:07.707Z,17.50
2019-06-01T20:20:57.054Z,17.40
2019-06-01T20:23:45.646Z,17.30
2019-06-01T20:26:42.017Z,17.30
2019-06-01T20:29:24.348Z,17.30
2019-06-01T20:32:13.839Z,17.10
2019-06-01T20:35:03.851Z,16.90
2019-06-01T20:37:52.546Z,16.70
2019-06-01T20:40:41.039Z,16.60
2019-06-01T20:43:29.650Z,16.50
2019-06-01T20:46:18.854Z,16.50
2019-06-01T20:49:07.135Z,16.50
2019-06-01T20:51:55.658Z,16.30
2019-06-01T20:54:43.714Z,16.20
2019-06-01T20:57:34.224Z,16.10
2019-06-01T21:00:31.672Z,16.10
2019-06-01T21:03:19.769Z,16.10
2019-06-01T21:06:12.191Z,16.00
2019-06-01T21:09:01.541Z,15.90
2019-06-01T21:11:50.517Z,15.80
2019-06-01T21:14:39.213Z,15.60
2019-06-01T21:17:30.768Z,15.60
2019-06-01T21:20:26.792Z,15.60
2019-06-01T21:23:16.569Z,15.60
2019-06-01T21:26:10.449Z,15.70
2019-06-01T21:28:59.022Z,15.50
2019-06-01T21:31:47.704Z,15.40
2019-06-01T21:34:36.373Z,15.30
2019-06-01T21:37:26.999Z,15.20
2019-06-01T21:40:17.323Z,15.00
2019-06-01T21:43:29.274Z,15.00
2019-06-01T21:46:17.554Z,15.00
2019-06-01T21:49:18.235Z,14.90
2019-06-01T21:52:22.066Z,14.80
2019-06-01T21:55:18.584Z,14.70
2019-06-01T21:58:18.830Z,14.60
2019-06-01T22:01:08.090Z,14.40
2019-06-01T22:03:56.272Z,14.30
2019-06-01T22:06:46.432Z,14.20
2019-06-01T22:09:35.115Z,14.20
2019-06-01T22:12:24.081Z,14.20
2019-06-01T22:15:13.358Z,14.10
2019-06-01T22:18:04.476Z,14.00
2019-06-01T22:20:53.103Z,14.10
2019-06-01T22:23:41.824Z,14.00
2019-06-01T22:26:30.137Z,13.90
2019-06-01T22:29:20.097Z,13.80
2019-06-01T22:32:08.036Z,13.80
2019-06-01T22:34:56.592Z,13.80
2019-06-01T22:37:45.242Z,13.80
2019-06-01T22:40:34.248Z,13.80
2019-06-01T22:43:39.239Z,13.70
2019-06-01T22:46:12.544Z,13.60
2019-06-01T22:49:01.740Z,13.50
2019-06-01T22:51:50.779Z,13.40
2019-06-01T22:54:39.929Z,13.40
2019-06-01T22:57:28.726Z,13.40
2019-06-01T23:00:17.634Z,13.50
2019-06-01T23:03:06.482Z,13.40
2019-06-01T23:05:55.307Z,13.30
2019-06-01T23:08:43.768Z,13.30
2019-06-01T23:11:32.911Z,13.30
2019-06-01T23:14:23.210Z,13.20
2019-06-01T23:17:12.323Z,13.10
2019-06-01T23:20:01.699Z,13.00
2019-06-01T23:22:53.661Z,13.00
2019-06-01T23:25:46.889Z,13.00
2019-06-01T23:28:38.628Z,12.90
2019-06-01T23:31:26.261Z,12.90
2019-06-01T23:34:14.983Z,13.00
2019-06-01T23:37:04.548Z,12.90
2019-06-01T23:39:52.978Z,12.80
2019-06-01T23:42:41.615Z,12.80
2019-06-01T23:45:30.933Z,12.70
2019-06-01T23:48:19.714Z,12.70
2019-06-01T23:51:08.112Z,12.60
2019-06-01T23:53:57.517Z,12.50
2019-06-01T23:56:47.626Z,12.50
2019-06-01T23:59:36.917Z,12.50
